Create Custom Reports and Graphics: Custom Report

Map - Northern Napa County

Map

15 Minute Data

Map - Southern Napa County

Map

15 Minute Data

Northeast Napa County

11 Stations

15 Minute Data | America/Los_Angeles
as of 5/5/26 6:30 AM PDT
Station Date Time Temp (°F) RH (%) Dew Pt (°F) Wind Spd (mph) Wind Dir (°) Wind Gust (mph) Latest Rain (In) Daily Rain (In) Daily Max Temp (°F) Daily Min Temp (°F)
Dollarhide 17B Remote 5/5/26 0615 52.3   7.0 97   2 51.5   6.4 - - - - - 52.5   2.4 52.1   7.9
Dollarhide 18A Remote 5/5/26 0615 51.5   9.3 96   4 50.3   8.3 - - - - - 51.7   3.4 51.2   9.2
Dollarhide 1AS Remote 5/5/26 0615 52.3   7.4 94   1 50.6   7.1 0.9   0.8 S | 182 3.0   2.2 - - 52.5   2.1 51.9   7.0
Angwin 5/5/26 0630 45.8   0.8 100   0 45.8   0.8 2.1   0.2 W | 273 5.7   1.3 0.00 0.01 46.3   0.1 45.5   0.9
Lower Angwin (Pioneer) 5/5/26 0630 47.2   0.8 - - 2.2   0.2 W | 273 6.9   2.0 - - 48.1   1.2 47.2   3.1
Lower Chiles Valley (Brown) 5/5/26 0630 50.9   4.9 90   4 48.2   3.8 3.6   2.3 WNW | 289 8.6   3.1 0.00 0.02 51.1   2.5 50.8   7.3
Deer Park 5/5/26 0630 51.0   3.5 92   2 49.0   3.0 3.2   1.9 NNW | 330 5.6   2.9 0.00 0.01 51.4   1.1 50.9   4.3
Moss Creek Vineyard/Reservior 5/5/26 0545 51.0   7.0 93   1 49.1   6.6 - - - 0.00 0.00 51.4   2.4 50.8   7.6
Montesol 5/5/26 0630 47.8   1.6 - - - - - 0.00 0.06 49.0   2.2 47.6   6.2
Dollarhide Base 5/5/26 0630 52.3   4.6 96   1 51.4   4.3 0.4   0.8 SSW | 204 1.5   0.7 0.00 0.02 52.5   0.3 51.9   4.3
Pope Valley (Weeks Lake) 5/5/26 0630 51.1   6.4 100   0 51.1   6.4 0.1   0.0 NE | 47 1.1   0.0 0.00 0.02 51.9   6.3 51.0   9.7
Max     52.3 100 51.5 3.6 - 8.6 0.00 0.06 52.5 52.1
Avg     50.3 95 49.7 1.8 - 4.6 0.00 - - -
Min     45.8 90 45.8 0.1 - 1.1 0.00 0.00 46.3 45.5

Northern & Central Napa County

32 Stations

15 Minute Data | America/Los_Angeles
as of 5/5/26 6:30 AM PDT
Station Date Time Temp (°F) RH (%) Dew Pt (°F) Wind Spd (mph) Wind Dir (°) Wind Gust (mph) Latest Rain (In) Daily Rain (In) Daily Max Temp (°F) Daily Min Temp (°F)
Calistoga-North 5/5/26 0630 52.0   1.8 99   6 51.7   3.3 - - - 0.00 0.02 52.9   0.8 51.9   3.7
Stags Leap Dist (Chimney Rock) 5/5/26 0630 53.2   10.1 98   1 52.5   9.8 0.5   0.3 SE | 134 1.5   0.3 0.00 0.01 53.4   4.0 52.9   10.1
Diamond Mtn (McEachran) 5/5/26 0615 51.2   2.1 95   5 49.8   3.5 - - - - - 52.1   1.0 51.1   3.7
Diamond Mtn (Schramsberg) 5/5/26 0630 49.9   2.3 100   6 50.0   3.9 - - - 0.00 0.01 51.0   1.8 49.8   2.4
Stags Leap Dist (Silverado Vineyards) 5/5/26 0630 52.5   8.8 94   1 50.7   8.5 0.1   0.2 ESE | 115 0.8   0.7 0.00 0.02 52.5   2.2 51.9   8.3
Oak Knoll-East (Ranch 53) 5/5/26 0630 53.1   8.9 96   3 52.0   9.6 1.3   1.2 E | 101 2.3   1.4 0.00 0.02 53.4   3.0 52.5   8.7
Rutherford-North (Mee Ln) 5/5/26 0615 47.8   5.7 96   2 46.8   6.1 0.6   0.3 ESE | 105 1.5   0.7 0.00 0.01 48.9   0.0 47.7   6.2
Frisinger Napa-NW 5/5/26 0615 53.2   7.4 96   3 52.0   8.1 0.3   0.0 NNE | 14 1.5   0.1 0.00 0.01 53.5   4.2 52.8   8.0
Napa-North (Ranch 29) 5/5/26 0630 52.5   7.5 100   0 52.5   7.4 0.4   0.4 E | 81 1.1   1.1 0.00 0.02 52.6   2.6 52.1   7.5
St. Helena (NVV Office) 5/5/26 0615 53.4   7.2 - - 0.1   0.0 NW | 316 0.7   0.1 0.00 0.01 53.4   0.6 52.9   6.8
Crossroads Ranch 5/5/26 0615 53.3   9.4 94   1 51.5   9.5 0.3   0.5 SE | 126 1.5   0.4 0.00 0.01 53.3   2.6 52.7   8.8
Oakville 5/5/26 0630 53.0   9.2 96   1 52.1   9.3 0.4   0.7 E | 100 1.2   1.3 0.01 0.16 53.0   2.8 52.4   8.8
OV561-East 5/5/26 0630 53.1   8.4 - - - - - - - 53.2   2.3 52.7   8.5
OV518-West 5/5/26 0630 53.2   9.0 - - - - - - - 53.3   3.3 52.5   8.9
Napa-NW (Ranch 54) 5/5/26 0630 53.2   7.5 100   4 53.2   8.7 0.2   0.1 NE | 40 1.2   0.6 0.00 0.01 53.5   4.1 52.9   7.6
Calistoga (Ranch 78) 5/5/26 0630 53.2   4.6 88   3 49.8   3.5 2.2   1.8 NW | 307 3.7   2.3 0.00 0.01 53.5   3.1 52.6   6.1
Yountville-SE (Ranch 85) 5/5/26 0615 52.9   8.7 100   4 52.9   9.7 0.7   0.4 SSE | 157 1.5   0.6 0.00 0.01 53.1   2.2 52.6   8.8
Yountville-South (Ranch 87) 5/5/26 0630 52.7   8.3 100   0 52.7   8.3 1.3   0.5 ESE | 116 2.2   0.0 0.00 0.02 53.1   3.4 52.5   8.9
Rutherford Hill Estate 5/5/26 0630 51.9   4.9 100   7 51.9   6.7 0.0   0.9 N | 0 0.0   2.8 0.00 0.01 51.9   1.2 51.2   4.4
Rutherford (STS) 5/5/26 0615 52.8   8.5 84   6 48.1   6.7 0.6   0.4 ESE | 108 1.7   0.7 0.00 0.11 53.0   3.3 52.3   9.4
Borreo (Soda Canyon) 5/5/26 0615 50.6   8.6 98   2 50.0   9.0 0.1   1.7 SE | 126 0.7   2.8 0.00 0.02 50.8   4.3 50.3   8.7
Oakville-NE (Ranch 88) 5/5/26 0615 52.9   9.9 99   8 52.7   12.0 0.0   0.0 N | 0 0.0   0.0 0.00 0.02 53.0   3.8 52.2   9.6
Soda Canyon 5/5/26 0615 52.8   10.7 92   0 50.5   10.7 0.0   0.2 ESE | 107 0.6   1.0 0.00 0.01 52.9   5.9 52.5   12.1
Silver Oak OV 5/5/26 0615 53.2   8.9 96   0 52.0   8.9 0.5   0.6 ENE | 69 1.8   0.4 0.00 0.02 53.2   1.6 52.6   9.2
Tiara Fria (East St. Helena) 5/5/26 0630 53.5   7.0 95   1 52.1   7.2 0.1   0.2 S | 169 1.0   0.3 0.00 0.01 53.5   1.8 52.9   7.1
To Kalon Remote (TKKE) 5/5/26 0630 53.6   10.2 - - - - - - - 53.7   4.2 52.9   9.9
To Kalon 5/5/26 0630 53.1   9.2 97   0 52.4   9.3 0.0   0.9 NNW | 348 0.6   1.8 0.00 0.01 53.2   2.9 52.4   8.8
To Kalon Remote (TKN5) 5/5/26 0630 53.5   9.7 - - - - - - - 53.8   0.9 52.8   9.3
St. Helena-North 5/5/26 0630 52.8   5.9 100   12 52.8   9.1 0.3   0.3 NW | 310 2.2   1.5 0.00 0.01 53.4   1.4 52.6   6.2
Twomey Calistoga 5/5/26 0615 52.4   4.4 94   0 50.9   4.5 0.6   0.8 W | 261 1.4   1.6 0.00 0.01 53.1   3.9 52.3   7.0
Wappo Hill Floor 5/5/26 0630 50.6   8.0 100   0 50.6   8.0 0.4   0.6 SSE | 165 1.4   1.5 0.00 0.03 50.8   1.8 50.2   8.0
Yountville (Ranch 67) 5/5/26 0615 52.4   8.6 96   1 51.2   8.7 0.0   1.9 N | 0 0.0   2.8 0.00 0.03 52.5   2.7 51.7   8.5
Max     53.6 100 53.2 2.2 - 3.7 0.01 0.16 53.8 52.9
Avg     52.5 96 51.3 0.4 - 1.3 0.00 - - -
Min     47.8 84 46.8 0.0 - 0.0 0.00 0.01 48.9 47.7

Southern Napa County

23 Stations

15 Minute Data | America/Los_Angeles
as of 5/5/26 6:30 AM PDT
Station Date Time Temp (°F) RH (%) Dew Pt (°F) Wind Spd (mph) Wind Dir (°) Wind Gust (mph) Latest Rain (In) Daily Rain (In) Daily Max Temp (°F) Daily Min Temp (°F)
Carneros (Milton Rd) 5/5/26 0615 53.6   10.9 92   0 51.5   10.7 - - - 0.00 0.00 53.8   1.3 52.7   10.6
Carneros Lower (Ranch 81) 5/5/26 0615 52.4   9.4 0   93 -64.2   105.2 0.0   0.0 NNW | 339 1.4   1.4 0.00 0.01 52.6   0.9 52.0   9.1
Carneros Upper (Ranch 81) 5/5/26 0630 52.2   4.6 100   7 52.2   6.4 0.1   4.0 W | 263 2.8   3.0 - - 52.2   0.0 51.4   3.8
Carneros (Mitsuko) 5/5/26 0615 53.1   12.2 - - - - - - - 53.2   3.0 52.5   12.2
Mount George (Napa East) 5/5/26 0630 54.6   9.8 96   0 53.5   9.8 1.1   1.1 E | 96 2.9   2.1 0.00 0.03 54.6   11.6 53.5   9.1
Napa-East (Palmaz 300') 5/5/26 0630 52.3   6.6 95   5 50.9   5.2 1.1   0.0 ESE | 118 2.6   0.3 0.00 0.03 52.4   2.7 51.8   7.4
Napa-East (Palmaz 1200') 5/5/26 0630 49.0   7.7 75   0 41.4   7.4 1.4   0.3 SW | 224 4.2   1.9 - - 49.2   2.1 48.9   7.9
Napa-East (Palmaz 1400') 5/5/26 0615 48.2   3.9 100   0 48.2   4.0 0.8   0.6 WSW | 247 3.6   1.4 0.00 0.02 48.5   1.1 48.0   4.4
Dealy Lane (Ranch 80) 5/5/26 0630 52.8   7.7 92   4 50.6   6.5 0.1   1.2 WSW | 253 1.4   1.7 0.00 0.03 52.8   1.5 52.2   8.4
Suscol Mtn (Ranch 93) 5/5/26 0615 49.8   1.9 100   2 49.8   2.4 6.2   2.5 NW | 315 9.4   3.7 0.00 0.02 49.9   0.8 49.2   1.9
Carneros (Saintsbury) 5/5/26 0630 49.0   5.5 100   0 49.0   5.5 1.0   0.8 SW | 223 2.5   0.3 0.00 0.00 49.4   0.8 48.7   5.6
Sugarloaf West 5/5/26 0630 53.7   7.7 93   2 51.8   6.9 1.9   0.7 SSW | 206 3.6   0.9 0.00 0.03 53.8   3.6 52.8   7.8
Suscol Upper (Ranch 92) 5/5/26 0630 50.4   1.9 100   97 50.4   79.4 4.0   4.0 SW | 227 8.9   8.9 0.00 0.02 50.5   0.8 49.8   1.7
Stanly (Ranch 45) 5/5/26 0615 50.5   6.9 94   1 48.8   6.7 2.3   0.3 SW | 228 4.3   1.0 0.00 0.00 50.8   1.0 49.8   7.0
Suscol Lower (Ranch 35) 5/5/26 0630 52.8   7.5 100   0 52.8   7.5 2.4   0.1 SW | 234 4.2   0.8 0.00 0.02 52.8   3.7 52.0   6.9
Napa-South (Toyon Farms) 5/5/26 0630 52.8   5.9 100   0 52.8   6.0 0.0   0.0 N | 0 0.0   0.0 0.00 0.02 53.0   3.0 52.2   5.4
Toyon Remote 1 5/5/26 0630 52.5   12.6 - - - - - - - 52.6   6.5 51.9   12.5
Toyon Remote 2 5/5/26 0630 53.4   7.9 - - - - - - - 53.5   4.9 52.6   11.4
Toyon Remote 3 5/5/26 0630 52.9   10.0 - - - - - - - 53.0   5.0 52.3   9.6
Napa-West Lower (Truchard) 5/5/26 0630 51.2   10.2 99   5 50.8   11.5 - - - - - 51.5   5.4 50.8   10.1
Napa-West Upper (Truchard) 5/5/26 0630 50.7   3.7 0   0 -65.5   3.2 0.7   0.1 SSW | 193 3.7   0.2 0.00 0.02 50.8   0.4 50.1   3.4
Mt. Veeder 5/5/26 0630 48.0   1.8 100   9 48.0   4.3 0.2   0.8 N | 350 2.3   0.7 0.00 0.03 48.5   1.0 48.0   2.0
Wooden Valley 5/5/26 0630 51.2   7.1 90   6 48.2   5.4 1.5   0.1 NW | 307 4.7   2.3 0.00 0.02 51.4   0.3 50.4   7.1
Max     54.6 100 53.5 6.2 - 9.4 0.00 0.03 54.6 53.5
Avg     51.6 86 37.9 1.5 - 3.7 0.00 - - -
Min     48.0 0 -65.5 0.0 - 0.0 0.00 0.00 48.5 48.0